createdAt,value
2019-01-06T00:00:31.338Z,6.57
2019-01-06T00:03:05.352Z,6.40
2019-01-06T00:05:36.600Z,6.43
2019-01-06T00:08:10.787Z,5.33
2019-01-06T00:11:00.080Z,4.73
2019-01-06T00:13:49.856Z,5.90
2019-01-06T00:16:21.094Z,5.57
2019-01-06T00:18:52.382Z,5.70
2019-01-06T00:21:23.674Z,5.40
2019-01-06T00:24:12.765Z,4.87
2019-01-06T00:26:49.850Z,4.53
2019-01-06T00:29:21.124Z,4.77
2019-01-06T00:32:08.804Z,5.10
2019-01-06T00:34:40.036Z,4.70
2019-01-06T00:37:14.262Z,4.83
2019-01-06T00:39:47.904Z,5.13
2019-01-06T00:42:25.132Z,4.50
2019-01-06T00:45:02.363Z,5.47
2019-01-06T00:47:45.598Z,4.87
2019-01-06T00:50:22.688Z,5.60
2019-01-06T00:53:10.438Z,5.33
2019-01-06T00:55:56.702Z,5.80
2019-01-06T00:58:44.138Z,5.80
2019-01-06T01:01:16.450Z,5.90
2019-01-06T01:03:56.614Z,6.40
2019-01-06T01:06:27.848Z,6.37
2019-01-06T01:09:18.842Z,6.50
2019-01-06T01:11:59.118Z,5.93
2019-01-06T01:14:33.100Z,7.13
2019-01-06T01:17:10.605Z,5.93
2019-01-06T01:19:44.919Z,6.63
2019-01-06T01:22:22.131Z,6.30
2019-01-06T01:25:09.858Z,6.50
2019-01-06T01:27:53.288Z,6.70
2019-01-06T01:30:33.370Z,6.67
2019-01-06T01:33:04.616Z,6.63
2019-01-06T01:35:41.925Z,6.87
2019-01-06T01:38:16.109Z,7.50
2019-01-06T01:40:47.348Z,7.50
2019-01-06T01:43:34.947Z,7.93
2019-01-06T01:46:22.508Z,7.90
2019-01-06T01:49:04.262Z,8.53
2019-01-06T01:51:41.264Z,8.77
2019-01-06T01:54:15.203Z,9.07
2019-01-06T01:56:55.230Z,9.40
2019-01-06T01:59:42.648Z,9.27
2019-01-06T02:02:13.898Z,9.53
2019-01-06T02:05:03.246Z,8.60
2019-01-06T02:07:50.877Z,8.10
2019-01-06T02:10:34.174Z,8.83
2019-01-06T02:13:21.658Z,8.70
2019-01-06T02:15:58.823Z,8.87
2019-01-06T02:18:30.045Z,9.33
2019-01-06T02:21:07.040Z,10.07
2019-01-06T02:23:53.398Z,9.73
2019-01-06T02:26:33.716Z,8.70
2019-01-06T02:29:10.916Z,10.83
2019-01-06T02:31:58.412Z,9.33
2019-01-06T02:34:45.808Z,9.87
2019-01-06T02:37:26.946Z,11.17
2019-01-06T02:39:58.191Z,9.67
2019-01-06T02:42:47.344Z,9.80
2019-01-06T02:48:41.389Z,8.23
2019-01-06T02:51:24.592Z,8.40
2019-01-06T02:54:14.117Z,7.60
2019-01-06T02:57:01.852Z,8.53
2019-01-06T02:59:49.689Z,8.53
2019-01-06T03:02:36.256Z,8.30
2019-01-06T03:05:07.499Z,7.50
2019-01-06T03:07:55.251Z,8.60
2019-01-06T03:10:35.348Z,9.17
2019-01-06T03:13:06.591Z,9.33
2019-01-06T03:15:37.847Z,9.00
2019-01-06T03:18:15.293Z,8.60
2019-01-06T03:21:03.061Z,8.20
2019-01-06T03:23:43.571Z,9.23
2019-01-06T03:26:31.470Z,8.27
2019-01-06T03:29:05.385Z,8.60
2019-01-06T03:31:48.706Z,7.93
2019-01-06T03:34:22.777Z,8.40
2019-01-06T03:36:57.235Z,9.47
2019-01-06T03:39:28.499Z,9.53
2019-01-06T03:42:15.633Z,9.40
2019-01-06T03:44:55.897Z,8.57
2019-01-06T03:47:30.110Z,9.40
2019-01-06T03:50:18.968Z,9.17
2019-01-06T03:53:06.703Z,9.53
2019-01-06T03:55:56.182Z,9.33
2019-01-06T03:58:30.335Z,8.63
2019-01-06T04:01:04.258Z,8.83
2019-01-06T04:03:35.520Z,8.87
2019-01-06T04:06:06.776Z,9.53
2019-01-06T04:08:54.592Z,9.13
2019-01-06T04:11:28.807Z,9.23
2019-01-06T04:14:05.758Z,8.63
2019-01-06T04:16:37.018Z,8.73
2019-01-06T04:19:24.792Z,8.73
2019-01-06T04:22:12.490Z,8.40
2019-01-06T04:24:46.436Z,9.13
2019-01-06T04:27:20.351Z,9.27
2019-01-06T04:33:10.366Z,9.70
2019-01-06T04:35:57.730Z,9.50
2019-01-06T04:38:34.964Z,8.67
2019-01-06T04:41:08.926Z,9.10
2019-01-06T04:43:58.580Z,9.47
2019-01-06T04:46:38.836Z,9.13
2019-01-06T04:49:26.626Z,9.50
2019-01-06T04:52:09.631Z,10.10
2019-01-06T04:54:57.096Z,9.87
2019-01-06T04:57:44.898Z,10.83
2019-01-06T05:00:34.581Z,11.53
2019-01-06T05:03:15.891Z,10.93
2019-01-06T05:05:47.336Z,11.47
2019-01-06T05:08:35.020Z,11.97
2019-01-06T05:11:22.758Z,11.63
2019-01-06T05:13:59.978Z,11.07
2019-01-06T05:16:34.152Z,10.60
2019-01-06T05:19:21.935Z,11.40
2019-01-06T05:22:09.256Z,10.27
2019-01-06T05:24:46.436Z,10.90
2019-01-06T05:27:32.735Z,11.37
2019-01-06T05:30:06.919Z,11.20
2019-01-06T05:32:41.105Z,11.23
2019-01-06T05:35:12.363Z,10.50
2019-01-06T05:37:46.753Z,10.73
2019-01-06T05:40:18.017Z,10.33
2019-01-06T05:42:51.948Z,10.80
2019-01-06T05:45:39.386Z,10.47
2019-01-06T05:48:29.019Z,10.40
2019-01-06T05:51:09.053Z,10.13
2019-01-06T05:53:40.871Z,10.07
2019-01-06T05:56:28.585Z,11.43
2019-01-06T05:58:59.832Z,11.37
2019-01-06T06:01:31.088Z,9.10
2019-01-06T06:04:11.322Z,10.20
2019-01-06T06:06:42.591Z,10.37
2019-01-06T06:09:19.579Z,10.43
2019-01-06T06:12:00.147Z,9.73
2019-01-06T06:14:46.443Z,10.83
2019-01-06T06:17:20.875Z,10.37
2019-01-06T06:19:54.643Z,10.37
2019-01-06T06:22:42.387Z,9.73
2019-01-06T06:25:13.624Z,10.27
2019-01-06T06:27:44.881Z,10.67
2019-01-06T06:30:19.867Z,17.77
2019-01-06T06:32:57.164Z,10.23
2019-01-06T06:35:44.871Z,10.57
2019-01-06T06:38:19.092Z,9.87
2019-01-06T06:41:06.559Z,10.67
2019-01-06T06:43:43.931Z,9.17
2019-01-06T06:46:40.457Z,10.23
2019-01-06T06:49:20.203Z,10.57
2019-01-06T06:51:51.455Z,10.33
2019-01-06T06:54:28.455Z,10.30
2019-01-06T06:57:51.487Z,10.23
2019-01-06T07:00:43.046Z,10.60
2019-01-06T07:03:20.268Z,10.27
2019-01-06T07:05:51.524Z,11.30
2019-01-06T07:08:25.229Z,10.80
2019-01-06T07:11:08.909Z,11.73
2019-01-06T07:13:45.847Z,10.43
2019-01-06T07:16:58.107Z,11.60
2019-01-06T07:19:38.411Z,11.07
2019-01-06T07:22:09.667Z,11.47
2019-01-06T07:24:49.915Z,12.77
2019-01-06T07:27:21.170Z,12.60
2019-01-06T07:29:55.346Z,11.67
2019-01-06T07:32:32.631Z,11.93
2019-01-06T07:35:12.774Z,12.50
2019-01-06T07:37:44.030Z,18.70
2019-01-06T07:40:31.838Z,13.23
2019-01-06T07:43:09.062Z,12.33
2019-01-06T07:45:43.024Z,13.57
2019-01-06T07:48:26.078Z,13.07
2019-01-06T07:51:12.397Z,13.20
2019-01-06T07:54:01.759Z,11.47
2019-01-06T07:56:41.846Z,12.13
2019-01-06T07:59:13.125Z,12.37
2019-01-06T08:02:01.006Z,12.10
2019-01-06T08:04:48.503Z,12.80
2019-01-06T08:07:25.486Z,12.33
2019-01-06T08:09:56.749Z,13.03
2019-01-06T08:12:30.939Z,12.73
2019-01-06T08:15:08.302Z,12.77
2019-01-06T08:17:48.097Z,12.50
2019-01-06T08:20:22.006Z,12.87
2019-01-06T08:23:02.279Z,13.37
2019-01-06T08:25:36.501Z,13.20
2019-01-06T08:28:23.035Z,15.20
2019-01-06T08:31:00.496Z,14.50
2019-01-06T08:33:37.845Z,14.57
2019-01-06T08:36:24.315Z,15.03
2019-01-06T08:38:55.579Z,14.27
2019-01-06T08:41:35.703Z,15.00
2019-01-06T08:44:06.975Z,14.60
2019-01-06T08:46:54.432Z,15.00
2019-01-06T08:49:34.810Z,15.37
2019-01-06T08:52:06.067Z,18.03
2019-01-06T08:54:55.415Z,17.97
2019-01-06T08:57:41.725Z,17.13
2019-01-06T09:00:29.503Z,18.70
2019-01-06T09:03:06.490Z,17.00
2019-01-06T09:05:55.776Z,17.10
2019-01-06T09:08:29.719Z,17.33
2019-01-06T09:11:09.846Z,19.20
2019-01-06T09:13:43.667Z,18.23
2019-01-06T09:16:17.973Z,18.17
2019-01-06T09:18:49.243Z,18.73
2019-01-06T09:21:29.393Z,19.27
2019-01-06T09:24:03.529Z,18.27
2019-01-06T09:30:02.653Z,18.70
2019-01-06T09:32:36.883Z,21.33
2019-01-06T09:35:25.379Z,18.53
2019-01-06T09:37:56.651Z,19.77
2019-01-06T09:40:33.741Z,18.27
2019-01-06T09:43:14.051Z,18.00
2019-01-06T09:46:01.811Z,18.50
2019-01-06T09:48:44.912Z,17.33
2019-01-06T09:51:16.993Z,19.40
2019-01-06T09:56:46.567Z,17.87
2019-01-06T09:59:34.315Z,18.83
2019-01-06T10:02:17.376Z,18.87
2019-01-06T10:04:57.608Z,18.10
2019-01-06T10:10:19.876Z,18.67
2019-01-06T10:13:03.055Z,15.60
2019-01-06T10:15:40.627Z,16.30
2019-01-06T10:18:17.728Z,15.83
2019-01-06T10:20:51.990Z,14.70
2019-01-06T10:23:35.487Z,13.40
2019-01-06T10:26:18.815Z,12.93
2019-01-06T10:28:50.076Z,13.00
2019-01-06T10:31:30.242Z,13.43
2019-01-06T10:34:04.196Z,13.77
2019-01-06T10:36:56.638Z,13.33
2019-01-06T10:39:37.006Z,13.50
2019-01-06T10:42:11.052Z,14.90
2019-01-06T10:44:45.017Z,12.83
2019-01-06T10:47:16.328Z,12.53
2019-01-06T10:49:47.618Z,12.47
2019-01-06T10:52:18.868Z,14.27
2019-01-06T10:55:06.647Z,14.47
2019-01-06T10:57:55.915Z,13.97
2019-01-06T11:00:43.792Z,13.53
2019-01-06T11:03:27.274Z,14.13
2019-01-06T11:06:14.736Z,13.83
2019-01-06T11:08:48.564Z,13.17
2019-01-06T11:11:22.816Z,14.77
2019-01-06T11:14:10.846Z,12.43
2019-01-06T11:16:51.336Z,12.87
2019-01-06T11:19:34.773Z,13.83
2019-01-06T11:22:06.027Z,13.87
2019-01-06T11:24:52.254Z,15.27
2019-01-06T11:27:29.279Z,15.57
2019-01-06T11:30:03.229Z,14.30
2019-01-06T11:32:37.447Z,13.97
2019-01-06T11:35:11.367Z,13.70
2019-01-06T11:37:46.107Z,15.07
2019-01-06T11:40:32.381Z,14.03
2019-01-06T11:43:03.643Z,14.67
2019-01-06T11:45:50.179Z,15.73
2019-01-06T11:48:24.367Z,13.87
2019-01-06T11:51:14.019Z,14.63
2019-01-06T11:53:45.272Z,14.33
2019-01-06T11:56:32.737Z,15.47
2019-01-06T11:59:03.999Z,14.70
2019-01-06T12:01:38.312Z,13.97
2019-01-06T12:04:15.609Z,14.37
2019-01-06T12:06:46.855Z,12.87
2019-01-06T12:09:26.038Z,13.63
2019-01-06T12:11:57.363Z,13.30
2019-01-06T12:14:46.503Z,13.50
2019-01-06T12:17:23.671Z,55.70
2019-01-06T12:19:54.935Z,16.57
2019-01-06T12:22:31.938Z,14.23
2019-01-06T12:25:03.219Z,15.50
2019-01-06T12:27:34.476Z,14.37
2019-01-06T12:30:12.939Z,13.87
2019-01-06T12:32:44.200Z,14.17
2019-01-06T12:35:31.804Z,13.90
2019-01-06T12:38:12.158Z,14.63
2019-01-06T12:40:43.423Z,13.70
2019-01-06T12:43:31.034Z,14.10
2019-01-06T12:46:02.294Z,12.07
2019-01-06T12:48:39.233Z,12.77
2019-01-06T12:51:16.216Z,13.37
2019-01-06T12:54:02.456Z,13.93
2019-01-06T12:56:39.748Z,14.53
2019-01-06T12:59:11.079Z,13.90
2019-01-06T13:05:01.133Z,15.00
2019-01-06T13:07:35.362Z,15.87
2019-01-06T13:10:24.766Z,43.60
2019-01-06T13:12:58.814Z,16.60
2019-01-06T13:15:30.058Z,17.30
2019-01-06T13:18:04.017Z,16.73
2019-01-06T13:20:35.258Z,17.37
2019-01-06T13:23:15.302Z,16.23
2019-01-06T13:25:52.257Z,17.53
2019-01-06T13:28:26.472Z,16.83
2019-01-06T13:31:03.741Z,17.10
2019-01-06T13:33:51.245Z,16.80
2019-01-06T13:36:31.612Z,17.63
2019-01-06T13:39:05.836Z,15.70
2019-01-06T13:41:42.878Z,17.20
2019-01-06T13:44:25.958Z,17.97
2019-01-06T13:47:03.146Z,18.47
2019-01-06T13:49:50.624Z,16.60
2019-01-06T13:52:24.864Z,16.63
2019-01-06T13:55:12.386Z,17.67
2019-01-06T13:58:00.238Z,16.73
2019-01-06T14:00:31.532Z,15.93
2019-01-06T14:03:02.807Z,16.83
2019-01-06T14:05:45.868Z,15.37
2019-01-06T14:08:20.056Z,16.83
2019-01-06T14:11:00.483Z,15.77
2019-01-06T14:13:31.736Z,16.60
2019-01-06T14:16:19.537Z,15.67
2019-01-06T14:19:02.879Z,16.20
2019-01-06T14:21:36.845Z,16.90
2019-01-06T14:24:16.909Z,16.37
2019-01-06T14:27:03.206Z,16.20
2019-01-06T14:29:37.391Z,16.67
2019-01-06T14:32:25.904Z,15.70
2019-01-06T14:35:03.006Z,16.47
2019-01-06T14:37:34.270Z,16.63
2019-01-06T14:40:06.473Z,17.73
2019-01-06T14:42:46.705Z,16.73
2019-01-06T14:45:34.379Z,16.40
2019-01-06T14:48:14.590Z,16.97
2019-01-06T14:51:04.374Z,17.90
2019-01-06T14:53:51.942Z,17.40
2019-01-06T14:56:38.467Z,16.00
2019-01-06T14:59:15.597Z,18.03
2019-01-06T15:01:46.883Z,18.93
2019-01-06T15:04:27.287Z,18.43
2019-01-06T15:07:01.755Z,17.50
2019-01-06T15:09:33.083Z,18.03
2019-01-06T15:12:20.532Z,18.53
2019-01-06T15:14:57.597Z,18.83
2019-01-06T15:17:34.563Z,17.90
2019-01-06T15:20:22.731Z,18.20
2019-01-06T15:23:00.077Z,16.83
2019-01-06T15:25:43.439Z,17.37
2019-01-06T15:28:20.529Z,18.20
2019-01-06T15:30:57.359Z,17.73
2019-01-06T15:33:37.730Z,16.50
2019-01-06T15:36:08.983Z,15.13
2019-01-06T15:38:49.385Z,17.37
2019-01-06T15:41:20.681Z,17.03
2019-01-06T15:43:58.087Z,13.90
2019-01-06T15:46:44.669Z,16.73
2019-01-06T15:49:15.979Z,16.53
2019-01-06T15:51:47.251Z,16.00
2019-01-06T15:54:18.519Z,16.83
2019-01-06T15:57:06.059Z,15.93
2019-01-06T15:59:53.686Z,16.67
2019-01-06T16:02:25.027Z,15.93
2019-01-06T16:05:12.365Z,17.50
2019-01-06T16:07:56.352Z,16.33
2019-01-06T16:10:27.605Z,18.63
2019-01-06T16:13:11.039Z,17.90
2019-01-06T16:15:48.531Z,16.70
2019-01-06T16:18:36.236Z,18.23
2019-01-06T16:21:09.511Z,17.93
2019-01-06T16:23:56.967Z,19.40
2019-01-06T16:26:30.908Z,19.30
2019-01-06T16:29:02.172Z,18.83
2019-01-06T16:31:33.468Z,18.53
2019-01-06T16:37:13.352Z,18.07
2019-01-06T16:39:56.364Z,18.77
2019-01-06T16:42:33.476Z,19.77
2019-01-06T16:45:20.945Z,18.47
2019-01-06T16:48:10.072Z,18.10
2019-01-06T16:50:43.177Z,16.70
2019-01-06T16:53:17.518Z,16.80
2019-01-06T16:56:06.966Z,17.70
2019-01-06T16:58:41.108Z,18.17
2019-01-06T17:01:12.360Z,18.60
2019-01-06T17:04:01.684Z,18.10
2019-01-06T17:06:49.378Z,19.27
2019-01-06T17:09:20.686Z,17.37
2019-01-06T17:11:51.934Z,19.97
2019-01-06T17:14:29.001Z,19.30
2019-01-06T17:17:00.251Z,19.33
2019-01-06T17:19:34.324Z,19.37
2019-01-06T17:22:22.156Z,20.13
2019-01-06T17:25:09.898Z,19.33
2019-01-06T17:27:59.460Z,18.93
2019-01-06T17:30:39.478Z,19.40
2019-01-06T17:33:28.804Z,19.10
2019-01-06T17:36:12.032Z,19.13
2019-01-06T17:38:59.677Z,18.97
2019-01-06T17:41:47.112Z,19.40
2019-01-06T17:44:34.837Z,18.47
2019-01-06T17:47:08.960Z,19.00
2019-01-06T17:49:40.213Z,19.60
2019-01-06T17:52:11.473Z,18.23
2019-01-06T17:54:42.725Z,19.00
2019-01-06T17:57:14.002Z,20.37
2019-01-06T17:59:57.474Z,20.30
2019-01-06T18:02:34.697Z,21.57
2019-01-06T18:05:23.645Z,29.37
2019-01-06T18:08:11.203Z,21.93
2019-01-06T18:10:51.413Z,20.13
2019-01-06T18:13:39.065Z,21.40
2019-01-06T18:16:26.558Z,20.23
2019-01-06T18:19:00.873Z,19.50
2019-01-06T18:21:57.054Z,20.07
2019-01-06T18:24:46.146Z,19.67
2019-01-06T18:27:20.828Z,20.87
2019-01-06T18:29:55.185Z,19.67
2019-01-06T18:32:35.160Z,22.93
2019-01-06T18:35:06.480Z,20.47
2019-01-06T18:37:46.818Z,20.67
2019-01-06T18:40:20.820Z,21.90
2019-01-06T18:42:55.120Z,23.03
2019-01-06T18:45:29.488Z,23.40
2019-01-06T18:48:00.838Z,22.07
2019-01-06T18:50:41.017Z,22.70
2019-01-06T18:53:28.758Z,20.07
2019-01-06T18:56:00.002Z,23.83
2019-01-06T18:58:34.030Z,22.70
2019-01-06T19:01:05.279Z,22.03
2019-01-06T19:03:51.871Z,21.83
2019-01-06T19:06:23.140Z,23.93
2019-01-06T19:09:06.612Z,23.03
2019-01-06T19:11:43.720Z,23.27
2019-01-06T19:14:20.958Z,23.03
2019-01-06T19:17:08.503Z,22.90
2019-01-06T19:19:39.779Z,23.77
2019-01-06T19:22:14.131Z,20.93
2019-01-06T19:24:45.403Z,21.83
2019-01-06T19:27:34.090Z,20.70
2019-01-06T19:30:18.144Z,19.97
2019-01-06T19:32:49.444Z,20.13
2019-01-06T19:35:23.715Z,19.70
2019-01-06T19:37:54.990Z,20.17
2019-01-06T19:40:26.260Z,19.70
2019-01-06T19:42:57.534Z,19.60
2019-01-06T19:45:41.050Z,18.20
2019-01-06T19:48:24.597Z,18.27
2019-01-06T19:51:01.606Z,18.30
2019-01-06T19:53:33.824Z,18.10
2019-01-06T19:56:07.813Z,18.50
2019-01-06T19:58:55.636Z,17.77
2019-01-06T20:01:33.137Z,17.67
2019-01-06T20:04:21.031Z,15.60
2019-01-06T20:07:08.753Z,17.10
2019-01-06T20:09:40.003Z,17.83
2019-01-06T20:12:26.255Z,18.33
2019-01-06T20:15:12.638Z,16.10
2019-01-06T20:18:02.143Z,17.00
2019-01-06T20:20:38.998Z,16.90
2019-01-06T20:23:13.056Z,16.67
2019-01-06T20:25:47.052Z,17.80
2019-01-06T20:28:34.926Z,16.83
2019-01-06T20:31:06.180Z,17.57
2019-01-06T20:33:38.502Z,16.47
2019-01-06T20:36:26.215Z,16.43
2019-01-06T20:39:09.742Z,17.17
2019-01-06T20:41:58.844Z,16.57
2019-01-06T20:44:34.973Z,17.13
2019-01-06T20:47:11.990Z,17.50
2019-01-06T20:49:52.242Z,17.90
2019-01-06T20:52:41.650Z,17.93
2019-01-06T20:55:23.681Z,18.17
2019-01-06T20:58:06.814Z,18.70
2019-01-06T21:00:46.828Z,17.60
2019-01-06T21:03:33.560Z,17.67
2019-01-06T21:06:13.610Z,19.90
2019-01-06T21:08:50.882Z,18.43
2019-01-06T21:11:24.807Z,17.87
2019-01-06T21:14:12.646Z,18.70
2019-01-06T21:17:02.504Z,18.37
2019-01-06T21:19:33.778Z,19.10
2019-01-06T21:22:13.935Z,18.90
2019-01-06T21:24:54.116Z,18.70
2019-01-06T21:27:43.674Z,20.60
2019-01-06T21:30:20.793Z,19.63
2019-01-06T21:32:52.057Z,19.10
2019-01-06T21:35:39.570Z,19.57
2019-01-06T21:38:22.706Z,19.67
2019-01-06T21:40:53.971Z,20.93
2019-01-06T21:43:41.387Z,21.33
2019-01-06T21:46:15.433Z,21.73
2019-01-06T21:49:04.981Z,22.67
2019-01-06T21:51:42.129Z,21.30
2019-01-06T21:54:25.753Z,21.63
2019-01-06T21:57:02.730Z,22.33
2019-01-06T21:59:50.215Z,23.00
2019-01-06T22:02:37.894Z,23.37
2019-01-06T22:05:15.167Z,23.67
2019-01-06T22:07:52.419Z,23.13
2019-01-06T22:10:23.687Z,21.73
2019-01-06T22:13:00.769Z,22.57
2019-01-06T22:15:47.041Z,22.73
2019-01-06T22:18:34.550Z,22.80
2019-01-06T22:21:11.991Z,22.63
2019-01-06T22:23:59.468Z,21.10
2019-01-06T22:29:50.147Z,22.97
2019-01-06T22:32:39.412Z,24.10
2019-01-06T22:35:10.695Z,20.87
2019-01-06T22:37:57.042Z,20.97
2019-01-06T22:40:44.850Z,22.60
2019-01-06T22:43:31.329Z,22.43
2019-01-06T22:46:15.436Z,23.00
2019-01-06T22:48:49.335Z,22.20
2019-01-06T22:51:23.326Z,22.13
2019-01-06T22:54:06.672Z,21.70
2019-01-06T22:56:37.940Z,21.10
2019-01-06T22:59:09.186Z,22.17
2019-01-06T23:01:53.528Z,22.10
2019-01-06T23:04:30.483Z,21.13
2019-01-06T23:07:01.741Z,19.77
2019-01-06T23:09:41.808Z,21.43
2019-01-06T23:12:29.334Z,21.37
2019-01-06T23:15:05.130Z,21.87
2019-01-06T23:17:54.400Z,21.90
2019-01-06T23:20:37.978Z,22.67
2019-01-06T23:23:11.707Z,21.93
2019-01-06T23:25:51.713Z,22.57
2019-01-06T23:28:35.139Z,23.67
2019-01-06T23:31:06.385Z,22.93
2019-01-06T23:33:43.644Z,24.43
2019-01-06T23:36:20.991Z,25.23
2019-01-06T23:38:58.443Z,25.10
2019-01-06T23:41:29.689Z,22.80
2019-01-06T23:44:00.949Z,23.70
2019-01-06T23:46:45.167Z,23.63
2019-01-06T23:49:31.397Z,26.33
2019-01-06T23:52:17.614Z,24.83
2019-01-06T23:55:03.870Z,26.77
2019-01-06T23:57:44.044Z,27.63
